Hood College, Maryland
Current Conditions -  °F | °C
As of 8:40 PM on Monday 24 Nov 2014 (Local Time) from KFDK Reporting Station
Clear Clear  
Wind Chill: 64°   Ceiling: Unl
Heat Index: 64°   Visibility: 10mi
Dew Point: 50°   Wind: 15mph
Humidity: 59%   Direction: 200°SSW
Pressure: 29.72"   Gusts: 20mph
Location:  39.4393°N, 77.3428°W
Report Text: KFDK 250140Z AUTO 20013G17KT 10SM CLR 18/10 A2972 RMK AO2 LTG DSNT SE
Loading
Personal Weather Stations






























Interactive Weather Map New forecast layout! Learn more

10-Day Weather Forecast

Advertisements
Track Severe Weather on mobile